Time;durP1;ratioP1;P1;durP2;ratioP2;P2;SDS_P1;SDS_P2;PMS_P1;PMS_P2;Temp;Humidity;BMP_temperature;BMP_pressure;BME280_temperature;BME280_humidity;BME280_pressure;Samples;Min_cycle;Max_cycle;Signal;HPM_P1;HPM_P2
2023/08/10 00:02:00;;;;;;;3.10;2.90;;;21.80;91.20;;;;;;4955479;28;20450;-73
2023/08/10 00:04:26;;;;;;;2.70;2.50;;;21.80;91.20;;;;;;4957337;28;20420;-73
2023/08/10 00:06:52;;;;;;;2.90;2.70;;;21.80;91.20;;;;;;4990400;28;20179;-72
2023/08/10 00:09:21;;;;;;;2.77;2.53;;;21.80;91.20;;;;;;4953365;28;20477;-72
2023/08/10 00:11:47;;;;;;;2.83;2.63;;;21.80;91.20;;;;;;4953900;28;20214;-72
2023/08/10 00:14:15;;;;;;;4.23;2.80;;;21.70;91.10;;;;;;4953221;28;20933;-73
2023/08/10 00:16:41;;;;;;;3.10;2.60;;;21.70;91.10;;;;;;4970742;28;20932;-72
2023/08/10 00:19:07;;;;;;;2.70;2.50;;;21.70;91.10;;;;;;4970974;28;20432;-72
2023/08/10 00:21:38;;;;;;;3.00;2.80;;;21.70;91.10;;;;;;4970691;28;21164;-72
2023/08/10 00:24:04;;;;;;;3.07;2.63;;;21.70;91.10;;;;;;4970659;28;20444;-73
2023/08/10 00:26:30;;;;;;;3.80;2.80;;;21.70;91.10;;;;;;4953422;28;20450;-73
2023/08/10 00:28:59;;;;;;;3.20;3.00;;;21.70;91.20;;;;;;4921774;28;20464;-73
2023/08/10 00:31:27;;;;;;;4.57;3.27;;;21.70;91.10;;;;;;4954220;28;20458;-73
2023/08/10 00:33:53;;;;;;;3.20;3.00;;;21.70;91.10;;;;;;4970858;28;20481;-73
2023/08/10 00:36:20;;;;;;;2.90;2.70;;;21.60;91.10;;;;;;4937647;28;20419;-72
2023/08/10 00:38:46;;;;;;;3.03;2.43;;;21.60;91.10;;;;;;4970295;28;20426;-73
2023/08/10 00:41:19;;;;;;;3.63;3.03;;;21.60;91.10;;;;;;4953172;28;20442;-72
2023/08/10 00:43:45;;;;;;;2.90;2.67;;;21.60;91.10;;;;;;4952649;28;20454;-72
2023/08/10 00:46:14;;;;;;;3.27;2.87;;;21.60;91.10;;;;;;4970583;28;20414;-73
2023/08/10 00:48:42;;;;;;;4.43;3.00;;;21.60;91.10;;;;;;4952302;28;20451;-72
2023/08/10 00:51:11;;;;;;;4.30;2.73;;;21.60;91.10;;;;;;4953257;28;20486;-73
2023/08/10 00:53:37;;;;;;;3.17;2.90;;;21.60;91.10;;;;;;4969832;28;20405;-72
2023/08/10 00:56:08;;;;;;;2.60;2.40;;;21.60;91.10;;;;;;4952823;28;20529;-73
2023/08/10 00:58:35;;;;;;;3.00;2.43;;;21.60;91.10;;;;;;4957144;28;20505;-73
2023/08/10 01:01:04;;;;;;;2.67;2.47;;;21.50;91.10;;;;;;4928355;28;20507;-73
2023/08/10 01:03:35;;;;;;;4.30;2.60;;;21.50;91.10;;;;;;4936384;28;20433;-73
2023/08/10 01:06:39;;;;;;;3.43;2.70;;;21.50;91.10;;;;;;4952492;28;21158;-72
2023/08/10 01:09:06;;;;;;;4.17;2.43;;;21.50;91.10;;;;;;4951694;28;20507;-72
2023/08/10 01:11:43;;;;;;;3.63;2.63;;;21.50;91.20;;;;;;4935913;28;20463;-73
2023/08/10 01:14:25;;;;;;;2.80;2.60;;;21.50;91.20;;;;;;4946095;29;20460;-73
2023/08/10 01:16:53;;;;;;;2.80;2.47;;;21.50;91.20;;;;;;4951299;28;20522;-73
2023/08/10 01:19:38;;;;;;;5.43;2.43;;;21.50;91.20;;;;;;4936722;28;20523;-73
2023/08/10 01:22:16;;;;;;;3.30;2.70;;;21.40;91.60;;;;;;4946973;28;20452;-72
2023/08/10 01:24:44;;;;;;;2.73;2.53;;;21.40;91.20;;;;;;4945989;29;20446;-72
2023/08/10 01:27:13;;;;;;;3.60;2.80;;;21.40;91.20;;;;;;4960255;28;20457;-72
2023/08/10 01:29:41;;;;;;;2.93;2.60;;;21.40;91.30;;;;;;4952685;28;20837;-72
2023/08/10 01:32:13;;;;;;;2.70;2.50;;;21.40;91.30;;;;;;4936676;28;20476;-73
2023/08/10 01:34:39;;;;;;;3.70;2.57;;;21.40;91.30;;;;;;4968931;28;20895;-73
2023/08/10 01:37:09;;;;;;;2.70;2.50;;;21.40;91.30;;;;;;4968629;28;20904;-73
2023/08/10 01:39:37;;;;;;;3.03;2.70;;;21.40;91.30;;;;;;4937635;29;20465;-73
2023/08/10 01:42:03;;;;;;;3.70;2.80;;;21.40;91.30;;;;;;4934829;29;20992;-73
2023/08/10 01:44:29;;;;;;;2.80;2.60;;;21.40;91.30;;;;;;4944134;28;20909;-73
2023/08/10 01:47:00;;;;;;;2.87;2.67;;;21.40;91.30;;;;;;4939649;28;20441;-72
2023/08/10 01:49:33;;;;;;;3.90;2.60;;;21.30;91.20;;;;;;4943664;28;20476;-72
2023/08/10 01:52:04;;;;;;;3.33;2.80;;;21.30;91.30;;;;;;4973218;28;20442;-72
2023/08/10 01:54:32;;;;;;;2.80;2.60;;;21.30;91.30;;;;;;4939888;28;20430;-73
2023/08/10 01:56:58;;;;;;;2.97;2.67;;;21.30;91.30;;;;;;4949829;28;20436;-73
2023/08/10 01:59:27;;;;;;;2.67;2.47;;;21.30;91.30;;;;;;4955441;28;20447;-72
2023/08/10 02:01:53;;;;;;;4.60;2.97;;;21.30;91.30;;;;;;4955409;28;20448;-72
2023/08/10 02:04:19;;;;;;;3.00;2.70;;;21.30;91.30;;;;;;4939688;28;20457;-72
2023/08/10 02:06:48;;;;;;;2.60;2.40;;;21.30;91.30;;;;;;4939696;28;20443;-73
2023/08/10 02:09:19;;;;;;;4.77;2.87;;;21.30;91.30;;;;;;4955540;28;20462;-72
2023/08/10 02:11:53;;;;;;;4.23;2.90;;;21.30;91.40;;;;;;4939750;28;20450;-72
2023/08/10 02:14:21;;;;;;;2.93;2.60;;;21.20;91.30;;;;;;4972637;28;20428;-73
2023/08/10 02:16:50;;;;;;;2.67;2.50;;;21.20;91.30;;;;;;4955537;28;20423;-73
2023/08/10 02:19:15;;;;;;;2.80;2.40;;;21.20;91.30;;;;;;4955650;28;20171;-73
2023/08/10 02:21:44;;;;;;;3.83;2.77;;;21.20;91.40;;;;;;4955919;28;20457;-73
2023/08/10 02:24:11;;;;;;;3.80;2.80;;;21.20;91.40;;;;;;4955581;28;20483;-72
2023/08/10 02:26:39;;;;;;;3.47;2.50;;;21.20;91.40;;;;;;4956339;28;20445;-73
2023/08/10 02:29:05;;;;;;;2.80;2.60;;;21.20;91.40;;;;;;4956217;28;20488;-73
2023/08/10 02:31:34;;;;;;;3.10;2.70;;;21.20;91.40;;;;;;4956321;28;20459;-72
2023/08/10 02:34:03;;;;;;;2.90;2.70;;;21.20;91.40;;;;;;4956057;28;20496;-72
2023/08/10 02:36:30;;;;;;;2.60;2.40;;;21.20;91.40;;;;;;4956395;28;21122;-73
2023/08/10 02:38:58;;;;;;;2.70;2.50;;;21.20;91.40;;;;;;4956311;28;20423;-72
2023/08/10 02:41:24;;;;;;;2.90;2.70;;;21.10;91.40;;;;;;4956561;28;20547;-71
2023/08/10 02:43:51;;;;;;;2.53;2.43;;;21.10;91.40;;;;;;4940206;28;20560;-72
2023/08/10 02:46:19;;;;;;;3.20;2.90;;;21.10;91.40;;;;;;4940137;28;20524;-73
2023/08/10 02:48:52;;;;;;;4.13;3.03;;;21.10;91.40;;;;;;4956710;28;20453;-73
2023/08/10 02:51:20;;;;;;;3.90;2.77;;;21.10;91.40;;;;;;4973518;28;20550;-73
2023/08/10 02:53:46;;;;;;;3.00;2.80;;;21.10;91.40;;;;;;4939173;28;20982;-73
2023/08/10 02:56:12;;;;;;;2.60;2.40;;;21.10;91.40;;;;;;4956197;28;20489;-72
2023/08/10 02:58:38;;;;;;;3.00;2.80;;;21.10;91.40;;;;;;4973314;28;20398;-72
2023/08/10 03:01:10;;;;;;;3.53;3.23;;;21.10;91.40;;;;;;4956199;28;20499;-72
2023/08/10 03:03:38;;;;;;;3.00;2.80;;;21.10;91.40;;;;;;4940642;28;20444;-72
2023/08/10 03:06:07;;;;;;;2.87;2.67;;;21.10;91.40;;;;;;4940613;28;20417;-72
2023/08/10 03:08:38;;;;;;;2.87;2.67;;;21.10;91.40;;;;;;4956553;28;20419;-73
2023/08/10 03:11:04;;;;;;;3.10;2.90;;;21.00;91.40;;;;;;4939938;28;20471;-73
2023/08/10 03:13:32;;;;;;;2.57;2.33;;;21.00;91.40;;;;;;4955499;28;21004;-71
2023/08/10 03:16:00;;;;;;;2.93;2.73;;;21.00;91.40;;;;;;4939702;28;20872;-73
2023/08/10 03:18:29;;;;;;;2.83;2.63;;;21.00;91.40;;;;;;4939640;28;20406;-71
2023/08/10 03:21:00;;;;;;;3.50;2.70;;;21.00;91.40;;;;;;4939784;28;20455;-72
2023/08/10 03:23:29;;;;;;;5.37;3.50;;;21.00;91.40;;;;;;4939498;28;20451;-72
2023/08/10 03:25:55;;;;;;;3.20;3.00;;;21.00;91.40;;;;;;4955161;28;21294;-72
2023/08/10 03:28:22;;;;;;;4.20;2.67;;;21.00;91.40;;;;;;4938975;28;20512;-72
2023/08/10 03:30:51;;;;;;;2.80;2.60;;;21.00;91.40;;;;;;4954923;28;20915;-73
2023/08/10 03:33:17;;;;;;;4.43;3.30;;;21.00;91.40;;;;;;4955056;28;20410;-72
2023/08/10 03:35:45;;;;;;;2.90;2.60;;;20.90;91.40;;;;;;4955161;28;20437;-73
2023/08/10 03:38:13;;;;;;;3.70;2.90;;;20.90;91.40;;;;;;4955163;28;20399;-73
2023/08/10 03:40:41;;;;;;;3.00;2.80;;;20.90;91.40;;;;;;4939213;28;21194;-73
2023/08/10 03:43:09;;;;;;;3.43;3.00;;;20.90;91.40;;;;;;4939000;28;20479;-72
2023/08/10 03:45:38;;;;;;;3.87;3.47;;;20.90;91.40;;;;;;4939358;28;20837;-73
2023/08/10 03:48:04;;;;;;;3.60;3.30;;;20.90;91.40;;;;;;4954533;28;20468;-73
2023/08/10 03:50:32;;;;;;;2.90;2.67;;;20.90;91.40;;;;;;4938307;28;20516;-73
2023/08/10 03:53:01;;;;;;;3.07;2.70;;;20.90;91.40;;;;;;4954392;28;20445;-73
2023/08/10 03:55:31;;;;;;;5.80;3.10;;;20.80;91.30;;;;;;4954198;28;20556;-72
2023/08/10 03:57:58;;;;;;;3.73;3.03;;;20.90;91.40;;;;;;4954268;28;20452;-71
2023/08/10 04:00:24;;;;;;;3.47;2.90;;;20.80;91.40;;;;;;4954137;28;20481;-72
2023/08/10 04:02:51;;;;;;;3.20;3.00;;;20.80;91.40;;;;;;4954199;28;20268;-72
2023/08/10 04:05:22;;;;;;;3.10;2.90;;;20.80;91.40;;;;;;4954007;28;20456;-73
2023/08/10 04:07:50;;;;;;;4.70;3.03;;;20.80;91.40;;;;;;4938223;28;20448;-72
2023/08/10 04:10:26;;;;;;;3.57;3.00;;;20.80;91.30;;;;;;4938011;28;20476;-72
2023/08/10 04:12:52;;;;;;;3.17;2.83;;;20.80;91.40;;;;;;4937575;28;20520;-72
2023/08/10 04:15:18;;;;;;;3.60;3.20;;;20.80;91.40;;;;;;4953223;28;20476;-73
2023/08/10 04:17:44;;;;;;;3.97;3.00;;;20.80;91.40;;;;;;4936588;28;20512;-72
2023/08/10 04:20:14;;;;;;;3.33;3.03;;;20.80;91.40;;;;;;4937777;28;20534;-72
2023/08/10 04:22:42;;;;;;;4.00;3.07;;;20.80;91.50;;;;;;4937525;28;20436;-73
2023/08/10 04:25:08;;;;;;;2.97;2.77;;;20.80;91.40;;;;;;4952879;28;20417;-73
2023/08/10 04:27:37;;;;;;;3.17;2.97;;;20.80;91.50;;;;;;4953317;28;20218;-72
2023/08/10 04:30:08;;;;;;;4.53;3.33;;;20.80;91.50;;;;;;4936772;28;20463;-72
2023/08/10 04:32:39;;;;;;;3.60;2.70;;;20.70;91.40;;;;;;4952976;28;20464;-73
2023/08/10 04:35:06;;;;;;;3.60;2.40;;;20.70;91.50;;;;;;4952568;28;20912;-71
2023/08/10 04:37:39;;;;;;;3.20;3.00;;;20.70;91.50;;;;;;4952484;28;20512;-70
2023/08/10 04:40:09;;;;;;;3.33;2.53;;;20.70;91.50;;;;;;4968550;28;20544;-72
2023/08/10 04:42:39;;;;;;;6.00;3.23;;;20.70;91.50;;;;;;4932432;29;20481;-71
2023/08/10 04:45:11;;;;;;;3.80;2.90;;;20.70;91.50;;;;;;4968535;28;20426;-71
2023/08/10 04:47:40;;;;;;;5.90;2.93;;;20.70;91.50;;;;;;4951587;28;20457;-71
2023/08/10 04:50:07;;;;;;;3.17;2.63;;;20.70;91.50;;;;;;4935374;28;20976;-70
2023/08/10 04:52:33;;;;;;;2.70;2.50;;;20.70;91.60;;;;;;4951025;28;20863;-71
2023/08/10 04:55:02;;;;;;;3.30;3.00;;;20.70;91.60;;;;;;4968337;28;20409;-71
2023/08/10 04:57:28;;;;;;;4.20;3.13;;;20.70;91.60;;;;;;4968336;28;20541;-71
2023/08/10 04:59:59;;;;;;;3.63;3.33;;;20.70;91.60;;;;;;4951460;28;20527;-71
2023/08/10 05:02:27;;;;;;;3.43;2.70;;;20.70;91.60;;;;;;4951995;28;20503;-71
2023/08/10 05:05:00;;;;;;;2.70;2.50;;;20.60;91.50;;;;;;4968454;28;21086;-71
2023/08/10 05:07:27;;;;;;;2.90;2.70;;;20.70;91.60;;;;;;4968491;28;20435;-71
2023/08/10 05:09:53;;;;;;;3.33;3.03;;;20.60;91.60;;;;;;4948133;29;20471;-71
2023/08/10 05:12:21;;;;;;;3.10;2.80;;;20.60;91.60;;;;;;4949294;29;21023;-71
2023/08/10 05:14:50;;;;;;;4.17;3.07;;;20.60;91.60;;;;;;4949383;29;20414;-70
2023/08/10 05:17:18;;;;;;;3.20;2.90;;;20.60;91.60;;;;;;4953303;28;20837;-71
2023/08/10 05:19:46;;;;;;;3.20;2.90;;;20.60;91.60;;;;;;4955940;28;20613;-71
2023/08/10 05:22:14;;;;;;;4.77;2.67;;;20.60;91.60;;;;;;4933644;28;20445;-71
2023/08/10 05:27:26;;;;;;;3.33;2.90;;;20.60;91.60;;;;;;4983606;28;20497;-71
2023/08/10 05:29:52;;;;;;;3.03;2.83;;;20.60;91.60;;;;;;5002705;28;20545;-71
2023/08/10 05:32:18;;;;;;;3.27;3.00;;;20.60;91.70;;;;;;5019609;28;21108;-72
2023/08/10 05:34:44;;;;;;;3.20;2.90;;;20.60;91.70;;;;;;4987180;28;20180;-70
2023/08/10 05:37:10;;;;;;;2.97;2.73;;;20.60;91.70;;;;;;5028488;28;20498;-70
2023/08/10 05:39:39;;;;;;;3.40;2.90;;;20.50;91.60;;;;;;5023229;28;20444;-70
2023/08/10 05:42:08;;;;;;;3.10;2.87;;;20.50;91.60;;;;;;5007676;28;20443;-70
2023/08/10 05:44:34;;;;;;;3.47;3.17;;;20.50;91.60;;;;;;5006357;28;20433;-70
2023/08/10 05:47:05;;;;;;;3.90;3.60;;;20.50;91.60;;;;;;4995015;28;20982;-72
2023/08/10 05:49:33;;;;;;;2.63;2.43;;;20.50;91.70;;;;;;4970686;28;20472;-72
2023/08/10 05:52:04;;;;;;;2.83;2.53;;;20.50;91.60;;;;;;4988481;28;20444;-73
2023/08/10 05:54:30;;;;;;;3.37;3.10;;;20.50;91.60;;;;;;4998524;28;20796;-72
2023/08/10 05:56:57;;;;;;;5.33;2.67;;;20.50;91.60;;;;;;4999449;23;20518;-71
2023/08/10 05:59:22;;;;;;;3.63;3.33;;;20.50;91.60;;;;;;4990082;28;20775;-70
2023/08/10 06:01:49;;;;;;;3.33;3.00;;;20.50;91.60;;;;;;4945522;28;20535;-70
2023/08/10 06:04:18;;;;;;;3.30;3.10;;;20.50;91.60;;;;;;4933918;28;20447;-77
2023/08/10 06:06:46;;;;;;;3.60;3.30;;;20.50;91.60;;;;;;4957927;28;20422;-71
2023/08/10 06:09:12;;;;;;;3.10;2.90;;;20.50;91.70;;;;;;4949431;28;20551;-70
2023/08/10 06:11:40;;;;;;;2.90;2.70;;;20.50;91.70;;;;;;4957256;28;20454;-69
2023/08/10 06:14:09;;;;;;;3.10;2.87;;;20.50;91.70;;;;;;4967375;28;20484;-69
2023/08/10 06:16:36;;;;;;;5.37;3.67;;;20.50;91.70;;;;;;4937203;28;20486;-71
2023/08/10 06:19:02;;;;;;;3.53;3.20;;;20.50;91.70;;;;;;4969081;28;20445;-70
2023/08/10 06:21:28;;;;;;;3.10;2.80;;;20.50;91.70;;;;;;4948628;28;20528;-70
2023/08/10 06:23:54;;;;;;;3.23;2.90;;;20.40;91.60;;;;;;4959293;28;20435;-70
2023/08/10 06:26:23;;;;;;;4.77;3.10;;;20.40;91.60;;;;;;4987548;28;20463;-68
2023/08/10 06:28:52;;;;;;;2.83;2.63;;;20.50;91.70;;;;;;4973278;28;20494;-68
2023/08/10 06:31:18;;;;;;;3.80;3.50;;;20.50;91.70;;;;;;4973822;28;20500;-68
2023/08/10 06:33:46;;;;;;;5.00;3.27;;;20.50;91.70;;;;;;4989617;28;20515;-68
2023/08/10 06:36:12;;;;;;;2.50;2.40;;;20.40;91.70;;;;;;4990731;28;20427;-68
2023/08/10 06:38:40;;;;;;;4.33;2.97;;;20.40;91.60;;;;;;4958159;28;20512;-68
2023/08/10 06:41:06;;;;;;;5.03;3.27;;;20.40;91.70;;;;;;4991141;28;20484;-68
2023/08/10 06:43:32;;;;;;;4.23;3.67;;;20.40;91.70;;;;;;4973582;28;20471;-68
2023/08/10 06:45:59;;;;;;;3.40;2.97;;;20.40;91.60;;;;;;4957408;28;20593;-68
2023/08/10 06:48:27;;;;;;;4.10;3.20;;;20.40;91.60;;;;;;4973693;28;20409;-68
2023/08/10 06:50:53;;;;;;;4.43;3.63;;;20.40;91.60;;;;;;4972940;28;20981;-67
2023/08/10 06:53:19;;;;;;;4.73;3.50;;;20.40;91.60;;;;;;4967336;28;20450;-68
2023/08/10 06:55:47;;;;;;;4.07;3.67;;;20.40;91.60;;;;;;4956261;28;20416;-69
2023/08/10 06:58:13;;;;;;;5.47;3.90;;;20.40;91.60;;;;;;4973832;28;21226;-70
2023/08/10 07:00:44;;;;;;;6.73;4.07;;;20.40;91.60;;;;;;4957879;28;20925;-68
2023/08/10 07:03:11;;;;;;;4.17;3.67;;;20.40;91.60;;;;;;4965923;28;20470;-68
2023/08/10 07:05:41;;;;;;;4.10;3.70;;;20.50;91.70;;;;;;4972214;28;20425;-68
2023/08/10 07:08:12;;;;;;;3.80;3.50;;;20.40;91.60;;;;;;4961257;28;20812;-68
2023/08/10 07:10:38;;;;;;;5.67;4.67;;;20.40;91.60;;;;;;4990475;28;20464;-68
2023/08/10 07:13:05;;;;;;;5.77;4.33;;;20.40;91.60;;;;;;4984778;28;20746;-68
2023/08/10 07:15:32;;;;;;;4.57;4.10;;;20.40;91.60;;;;;;4953484;28;20421;-68
2023/08/10 07:17:59;;;;;;;6.63;4.53;;;20.40;91.60;;;;;;4962661;28;20419;-68
2023/08/10 07:20:25;;;;;;;6.53;4.20;;;20.40;91.60;;;;;;4937549;28;20483;-69
2023/08/10 07:22:51;;;;;;;4.50;4.10;;;20.40;91.60;;;;;;4946846;28;20535;-68
2023/08/10 07:25:22;;;;;;;5.87;4.93;;;20.40;91.50;;;;;;4972686;28;20503;-68
2023/08/10 07:27:51;;;;;;;5.47;4.77;;;20.40;91.50;;;;;;4971296;28;20447;-67
2023/08/10 07:30:21;;;;;;;5.20;4.70;;;20.40;91.50;;;;;;4972753;28;20479;-68
2023/08/10 07:32:50;;;;;;;5.13;4.63;;;20.40;91.50;;;;;;4988719;28;20443;-68
2023/08/10 07:35:19;;;;;;;6.43;4.50;;;20.40;91.50;;;;;;4957348;28;20446;-68
2023/08/10 07:37:47;;;;;;;6.70;4.70;;;20.50;91.50;;;;;;4987489;28;20449;-68
2023/08/10 07:40:16;;;;;;;6.53;4.40;;;20.40;91.50;;;;;;4951909;28;20486;-68
2023/08/10 07:42:42;;;;;;;5.63;3.83;;;20.50;91.60;;;;;;4989991;28;20423;-67
2023/08/10 07:45:09;;;;;;;6.00;4.33;;;20.40;91.50;;;;;;4989436;28;21051;-68
2023/08/10 07:47:36;;;;;;;5.60;4.70;;;20.40;91.50;;;;;;4972250;28;20423;-68
2023/08/10 07:50:06;;;;;;;5.97;4.50;;;20.40;91.50;;;;;;4973058;28;20461;-68
2023/08/10 07:52:39;;;;;;;4.47;4.07;;;20.40;91.50;;;;;;4988997;28;20423;-68
2023/08/10 07:55:05;;;;;;;6.73;4.37;;;20.50;91.60;;;;;;4988395;28;20446;-68
2023/08/10 07:57:34;;;;;;;5.23;4.10;;;20.40;91.50;;;;;;4989743;28;20427;-68
2023/08/10 08:00:06;;;;;;;4.97;3.73;;;20.40;91.60;;;;;;4972350;28;21219;-68
2023/08/10 08:02:42;;;;;;;4.90;4.37;;;20.40;91.60;;;;;;4985060;28;20460;-68
2023/08/10 08:05:11;;;;;;;7.07;4.80;;;20.50;91.60;;;;;;4972335;28;20487;-68
2023/08/10 08:07:37;;;;;;;4.40;3.90;;;20.50;91.60;;;;;;4972513;28;20438;-70
2023/08/10 08:10:03;;;;;;;4.40;3.67;;;20.50;91.60;;;;;;4971978;28;20489;-70
2023/08/10 08:12:29;;;;;;;6.50;4.50;;;20.50;91.60;;;;;;4989794;28;20487;-70
2023/08/10 08:14:56;;;;;;;4.63;4.23;;;20.50;91.50;;;;;;4989760;28;20451;-70
2023/08/10 08:17:25;;;;;;;5.43;4.17;;;20.50;91.50;;;;;;4989356;28;20262;-70
2023/08/10 08:19:56;;;;;;;4.57;3.90;;;20.50;91.80;;;;;;4988236;28;20512;-70
2023/08/10 08:22:23;;;;;;;7.20;4.60;;;20.50;91.50;;;;;;4972227;28;20414;-70
2023/08/10 08:24:52;;;;;;;4.90;4.40;;;20.50;91.40;;;;;;4971538;28;20439;-70
2023/08/10 08:27:22;;;;;;;4.73;4.33;;;20.60;91.60;;;;;;4956426;28;20429;-70
2023/08/10 08:29:51;;;;;;;5.13;4.20;;;20.50;91.40;;;;;;4956374;28;20489;-70
2023/08/10 08:32:19;;;;;;;5.57;3.77;;;20.60;91.50;;;;;;4989327;28;20456;-70
2023/08/10 08:34:47;;;;;;;4.00;3.60;;;20.60;91.40;;;;;;4951554;28;20533;-70
2023/08/10 08:37:14;;;;;;;4.53;3.67;;;20.60;91.40;;;;;;4972032;28;21012;-70
2023/08/10 08:39:40;;;;;;;4.63;4.23;;;20.60;91.40;;;;;;4989616;28;20469;-69
2023/08/10 08:42:07;;;;;;;5.10;3.43;;;20.60;91.40;;;;;;4988462;28;20963;-70
2023/08/10 08:44:35;;;;;;;4.70;4.07;;;20.60;91.40;;;;;;4971783;28;20506;-70
2023/08/10 08:47:04;;;;;;;4.93;4.27;;;20.60;91.30;;;;;;4988682;28;20494;-68
2023/08/10 08:49:33;;;;;;;5.43;4.40;;;20.60;91.20;;;;;;4937108;28;20476;-68
2023/08/10 08:52:00;;;;;;;4.80;4.33;;;20.60;91.20;;;;;;4969280;28;20833;-68
2023/08/10 08:54:33;;;;;;;5.67;4.37;;;20.60;91.10;;;;;;4968846;28;20459;-68
2023/08/10 08:57:00;;;;;;;5.17;3.63;;;20.70;91.10;;;;;;4972077;28;20424;-68
2023/08/10 08:59:26;;;;;;;4.90;3.97;;;20.70;91.10;;;;;;4955572;28;20478;-68
2023/08/10 09:01:56;;;;;;;5.20;4.13;;;20.70;91.10;;;;;;4989383;28;20440;-70
2023/08/10 09:04:24;;;;;;;4.07;3.60;;;20.70;91.10;;;;;;4953820;28;20450;-70
2023/08/10 09:06:50;;;;;;;4.97;4.00;;;20.70;91.10;;;;;;4952710;28;20501;-70
2023/08/10 09:09:19;;;;;;;4.60;4.10;;;20.70;91.10;;;;;;4953476;28;20548;-70
2023/08/10 09:11:47;;;;;;;4.47;3.70;;;20.80;91.10;;;;;;4985937;28;20520;-70
2023/08/10 09:14:16;;;;;;;4.10;3.73;;;20.80;91.00;;;;;;4955131;28;20416;-71
2023/08/10 09:16:45;;;;;;;3.80;3.50;;;20.80;91.00;;;;;;4971025;28;20432;-71
2023/08/10 09:19:14;;;;;;;6.10;4.13;;;20.80;91.00;;;;;;4968857;28;21039;-71
2023/08/10 09:21:45;;;;;;;6.17;4.20;;;20.80;91.00;;;;;;4970971;28;20955;-71
2023/08/10 09:24:11;;;;;;;4.87;4.00;;;20.80;90.90;;;;;;4970578;28;20898;-71
2023/08/10 09:26:39;;;;;;;5.37;3.93;;;20.90;91.00;;;;;;4988193;28;20475;-71
2023/08/10 09:29:08;;;;;;;4.37;3.87;;;20.90;91.00;;;;;;4954735;28;20459;-71
2023/08/10 09:31:34;;;;;;;4.50;4.10;;;20.90;91.00;;;;;;4951988;28;20507;-71
2023/08/10 09:34:00;;;;;;;4.63;4.17;;;21.00;91.00;;;;;;4971274;28;20424;-71
2023/08/10 09:36:29;;;;;;;4.73;3.97;;;21.00;90.90;;;;;;4970532;28;20907;-71
2023/08/10 09:39:03;;;;;;;4.50;4.13;;;21.00;90.90;;;;;;4969548;28;20462;-71
2023/08/10 09:41:31;;;;;;;4.67;3.87;;;21.10;90.80;;;;;;4969902;28;21009;-71
2023/08/10 09:43:57;;;;;;;5.03;4.53;;;21.10;90.80;;;;;;4982321;28;20520;-71
2023/08/10 09:46:23;;;;;;;4.67;4.00;;;21.10;90.80;;;;;;4960729;28;20468;-71
2023/08/10 09:48:52;;;;;;;4.80;3.70;;;21.10;90.70;;;;;;4968624;28;20803;-71
2023/08/10 09:51:18;;;;;;;3.70;3.40;;;21.20;90.80;;;;;;4987532;28;20527;-71
2023/08/10 09:53:44;;;;;;;5.20;4.23;;;21.20;90.70;;;;;;4969991;28;20445;-71
2023/08/10 09:56:10;;;;;;;4.67;4.20;;;21.20;90.70;;;;;;4970021;28;20525;-71
2023/08/10 09:58:39;;;;;;;4.73;3.70;;;21.30;90.80;;;;;;4945493;28;20461;-71
2023/08/10 10:01:07;;;;;;;4.80;4.23;;;21.30;90.80;;;;;;4961313;28;20715;-71
2023/08/10 10:03:36;;;;;;;4.73;3.70;;;21.40;90.80;;;;;;4972467;28;20478;-71
2023/08/10 10:06:02;;;;;;;4.13;3.73;;;21.40;90.80;;;;;;4991433;28;20895;-71
2023/08/10 10:08:36;;;;;;;4.53;4.13;;;21.40;90.80;;;;;;4991729;28;20420;-72
2023/08/10 10:11:13;;;;;;;5.40;3.80;;;21.40;90.80;;;;;;4957308;28;20567;-72
2023/08/10 10:13:42;;;;;;;3.90;3.50;;;21.50;90.90;;;;;;4970848;28;20435;-69
2023/08/10 10:16:10;;;;;;;3.53;3.00;;;21.50;90.90;;;;;;4957598;28;20428;-73
2023/08/10 10:18:38;;;;;;;4.53;3.80;;;21.50;90.90;;;;;;4967804;28;20426;-73
2023/08/10 10:21:05;;;;;;;4.70;4.20;;;21.60;90.90;;;;;;4972441;28;20996;-73
2023/08/10 10:23:32;;;;;;;4.40;4.00;;;21.60;90.90;;;;;;4955132;28;20488;-73
2023/08/10 10:26:06;;;;;;;7.20;4.20;;;21.60;90.90;;;;;;4953875;28;20479;-73
2023/08/10 10:28:35;;;;;;;5.03;4.23;;;21.70;91.30;;;;;;4983379;28;20417;-74
2023/08/10 10:31:04;;;;;;;4.10;3.70;;;21.70;91.00;;;;;;4964930;28;20483;-73
2023/08/10 10:33:33;;;;;;;4.97;4.47;;;21.80;91.00;;;;;;4973141;28;20428;-73
2023/08/10 10:36:13;;;;;;;4.10;3.80;;;21.80;90.90;;;;;;4972927;28;20427;-73
2023/08/10 10:38:40;;;;;;;4.80;4.30;;;21.80;90.90;;;;;;4990512;28;20408;-73
2023/08/10 10:41:16;;;;;;;4.60;3.90;;;21.90;91.00;;;;;;4973170;28;20445;-73
2023/08/10 10:43:44;;;;;;;6.63;4.40;;;21.90;90.80;;;;;;4990136;28;20515;-73
2023/08/10 10:46:31;;;;;;;5.10;4.30;;;21.90;90.80;;;;;;4990278;28;20424;-73
2023/08/10 10:48:58;;;;;;;5.30;4.53;;;22.00;90.70;;;;;;4953563;28;20951;-73
2023/08/10 10:51:29;;;;;;;6.20;4.20;;;22.00;90.70;;;;;;4966003;28;20451;-73
2023/08/10 10:53:55;;;;;;;6.00;4.33;;;22.00;90.50;;;;;;4972670;28;20438;-73
2023/08/10 10:56:25;;;;;;;5.00;4.60;;;22.10;90.50;;;;;;4972580;28;20429;-73
2023/08/10 10:58:54;;;;;;;4.30;3.90;;;22.10;90.40;;;;;;4972578;28;20803;-73
2023/08/10 11:01:22;;;;;;;5.67;4.37;;;22.10;90.40;;;;;;4956870;28;20631;-73
2023/08/10 11:03:59;;;;;;;5.23;4.73;;;22.20;90.30;;;;;;4956189;28;20841;-73
2023/08/10 11:06:30;;;;;;;6.90;4.53;;;22.20;90.30;;;;;;4956502;28;20496;-73
2023/08/10 11:08:56;;;;;;;6.00;4.40;;;22.20;90.20;;;;;;4972355;28;20933;-73
2023/08/10 11:11:24;;;;;;;5.50;4.00;;;22.30;90.20;;;;;;4990009;28;20445;-75
2023/08/10 11:13:52;;;;;;;5.90;5.00;;;22.30;90.20;;;;;;4971470;28;21053;-75
2023/08/10 11:16:18;;;;;;;4.87;4.47;;;22.30;90.10;;;;;;4937135;28;20434;-75
2023/08/10 11:18:47;;;;;;;4.93;4.53;;;22.40;90.20;;;;;;4986334;28;20507;-74
2023/08/10 11:21:20;;;;;;;6.67;4.60;;;22.40;90.20;;;;;;4989825;28;20579;-72
2023/08/10 11:23:51;;;;;;;5.63;4.57;;;22.50;90.20;;;;;;4989841;28;20434;-73
2023/08/10 11:26:19;;;;;;;5.63;4.00;;;22.50;90.10;;;;;;5024281;23;21172;-76
2023/08/10 11:28:46;;;;;;;6.87;4.87;;;22.50;90.10;;;;;;4954029;28;20520;-74
2023/08/10 11:31:14;;;;;;;7.07;4.50;;;22.50;90.10;;;;;;4923895;28;20480;-74
2023/08/10 11:33:40;;;;;;;5.90;5.00;;;22.50;90.00;;;;;;4939456;28;20422;-73
2023/08/10 11:36:07;;;;;;;6.33;4.60;;;22.60;90.10;;;;;;4938302;28;20462;-74
2023/08/10 11:38:46;;;;;;;5.37;4.47;;;22.60;90.00;;;;;;4953247;28;20936;-74
2023/08/10 11:41:17;;;;;;;6.10;5.60;;;22.70;90.00;;;;;;4970853;28;21089;-74
2023/08/10 11:43:46;;;;;;;7.37;5.13;;;22.70;90.00;;;;;;4970768;28;20403;-74
2023/08/10 11:46:16;;;;;;;5.33;4.83;;;22.70;89.90;;;;;;4925041;29;20431;-72
2023/08/10 11:48:43;;;;;;;6.50;4.80;;;22.70;89.90;;;;;;4918827;29;20447;-73
2023/08/10 11:51:17;;;;;;;5.17;4.47;;;22.80;90.00;;;;;;4962889;28;20459;-74
2023/08/10 11:53:47;;;;;;;5.53;5.03;;;22.80;90.00;;;;;;4952337;29;20959;-74
2023/08/10 11:56:13;;;;;;;5.37;4.90;;;22.80;90.00;;;;;;4949789;29;20482;-74
2023/08/10 11:58:40;;;;;;;5.27;4.67;;;22.90;90.00;;;;;;4949885;29;20826;-74
2023/08/10 12:01:07;;;;;;;7.83;4.70;;;22.90;89.90;;;;;;4934157;29;20451;-74
2023/08/10 12:03:33;;;;;;;4.70;4.30;;;22.90;89.80;;;;;;4951118;29;20400;-74
2023/08/10 12:06:06;;;;;;;5.97;5.30;;;23.00;89.90;;;;;;4933886;29;20575;-74
2023/08/10 12:08:38;;;;;;;5.20;4.70;;;23.00;89.80;;;;;;4950212;29;20484;-74
2023/08/10 12:11:12;;;;;;;6.30;5.00;;;23.00;89.80;;;;;;4951624;28;20458;-74
2023/08/10 12:13:49;;;;;;;5.77;4.73;;;23.00;89.70;;;;;;4952483;28;20772;-74
2023/08/10 12:16:20;;;;;;;7.13;4.77;;;23.10;89.80;;;;;;4950842;28;20493;-74
2023/08/10 12:18:48;;;;;;;5.63;4.93;;;23.10;89.60;;;;;;4951114;29;20494;-74
2023/08/10 12:21:17;;;;;;;6.67;5.40;;;23.20;89.60;;;;;;4948223;28;20516;-74
2023/08/10 12:23:43;;;;;;;7.77;4.93;;;23.20;89.70;;;;;;4940247;29;20824;-74
2023/08/10 12:26:11;;;;;;;5.63;4.90;;;23.20;89.70;;;;;;4950666;28;20449;-74
2023/08/10 12:28:40;;;;;;;5.90;5.13;;;23.20;89.60;;;;;;4952972;28;20415;-74
2023/08/10 12:31:06;;;;;;;5.73;5.13;;;23.30;89.60;;;;;;4936897;28;20470;-74
2023/08/10 12:33:33;;;;;;;6.10;5.50;;;23.30;89.40;;;;;;4952800;28;20452;-74
2023/08/10 12:35:59;;;;;;;6.57;5.30;;;23.30;89.10;;;;;;4952391;28;20440;-74
2023/08/10 12:38:27;;;;;;;5.73;5.10;;;23.30;88.90;;;;;;4970003;28;20933;-73
2023/08/10 12:40:57;;;;;;;5.67;5.00;;;23.40;89.10;;;;;;4969700;28;20442;-74
2023/08/10 12:43:24;;;;;;;6.53;5.10;;;23.40;89.20;;;;;;4969568;28;20458;-74
2023/08/10 12:45:53;;;;;;;5.40;4.83;;;23.40;89.20;;;;;;4952601;28;20485;-74
2023/08/10 12:48:20;;;;;;;5.60;5.10;;;23.50;89.20;;;;;;4952429;28;20418;-74
2023/08/10 12:50:46;;;;;;;5.57;5.07;;;23.50;89.00;;;;;;4969885;28;20473;-74
2023/08/10 12:53:14;;;;;;;6.23;5.63;;;23.50;88.80;;;;;;4952264;28;20438;-74
2023/08/10 12:55:40;;;;;;;7.40;5.47;;;23.50;89.10;;;;;;4935877;28;20446;-74
2023/08/10 12:58:14;;;;;;;6.00;5.40;;;23.50;89.30;;;;;;4951853;28;20478;-74